Time;durP1;ratioP1;P1;durP2;ratioP2;P2;SDS_P1;SDS_P2;PMS_P1;PMS_P2;Temp;Humidity;BMP_temperature;BMP_pressure;BME280_temperature;BME280_humidity;BME280_pressure;Samples;Min_cycle;Max_cycle;Signal;HPM_P1;HPM_P2
2022/07/24 00:00:29;;;;;;;7.60;6.70;;;;;;;23.57;53.27;99014.59;5075015;28;20064;-48
2022/07/24 00:02:55;;;;;;;8.70;6.38;;;;;;;23.58;53.16;99013.50;5075028;28;20459;-49
2022/07/24 00:05:20;;;;;;;8.55;6.65;;;;;;;23.50;53.53;99008.72;5074947;28;20024;-49
2022/07/24 00:07:46;;;;;;;9.13;6.07;;;;;;;23.41;53.66;99024.59;5057064;28;20025;-49
2022/07/24 00:10:12;;;;;;;8.75;6.80;;;;;;;23.33;53.53;99015.25;5056816;28;20025;-49
2022/07/24 00:12:38;;;;;;;9.02;6.82;;;;;;;23.25;53.92;99013.16;5074940;28;20024;-49
2022/07/24 00:15:04;;;;;;;9.65;6.32;;;;;;;23.22;53.96;99012.88;5074719;28;20044;-49
2022/07/24 00:17:30;;;;;;;9.02;6.82;;;;;;;23.17;53.85;99004.91;5056755;28;20074;-49
2022/07/24 00:19:56;;;;;;;12.18;6.95;;;;;;;23.14;54.40;99008.94;5074714;28;20032;-49
2022/07/24 00:22:23;;;;;;;8.82;6.20;;;;;;;23.08;54.45;99010.00;5056358;28;20028;-49
2022/07/24 00:24:49;;;;;;;6.80;6.15;;;;;;;22.97;54.67;99013.78;5074830;28;20516;-49
2022/07/24 00:27:16;;;;;;;7.32;6.00;;;;;;;22.90;54.87;99022.13;5074746;28;20028;-50
2022/07/24 00:29:42;;;;;;;6.40;5.70;;;;;;;22.82;54.84;99018.13;5074545;28;20394;-49
2022/07/24 00:32:11;;;;;;;11.15;6.75;;;;;;;22.77;55.26;99020.00;5074299;28;20033;-50
2022/07/24 00:34:36;;;;;;;9.57;6.95;;;;;;;22.72;55.22;99012.81;5056665;28;20118;-49
2022/07/24 00:37:02;;;;;;;11.82;6.25;;;;;;;22.69;55.05;99018.69;5056321;28;20032;-48
2022/07/24 00:39:28;;;;;;;8.30;6.25;;;;;;;22.63;55.41;99015.22;5073916;28;20070;-48
2022/07/24 00:41:53;;;;;;;10.48;6.45;;;;;;;22.59;55.55;99008.81;5074277;28;20035;-49
2022/07/24 00:44:20;;;;;;;10.30;6.40;;;;;;;22.58;55.49;99004.53;5074261;28;20016;-49
2022/07/24 00:46:47;;;;;;;7.85;7.05;;;;;;;22.50;55.64;98995.19;5074229;28;20035;-49
2022/07/24 00:49:15;;;;;;;7.15;6.43;;;;;;;22.42;55.64;99001.09;5056146;28;20120;-49
2022/07/24 00:51:43;;;;;;;8.48;6.18;;;;;;;22.39;56.13;98992.81;5055996;28;20397;-47
2022/07/24 00:54:13;;;;;;;8.50;5.85;;;;;;;22.39;55.81;98985.56;5074135;28;20028;-49
2022/07/24 00:56:41;;;;;;;8.13;5.90;;;;;;;22.38;56.35;98989.34;5074075;28;20032;-49
2022/07/24 00:59:07;;;;;;;8.25;6.20;;;;;;;22.32;56.38;98985.06;5055994;28;20020;-50
2022/07/24 01:01:33;;;;;;;8.10;6.30;;;;;;;22.29;56.43;98989.06;5073925;28;20035;-49
2022/07/24 01:03:59;;;;;;;8.70;7.10;;;;;;;22.24;56.43;98989.09;5073899;28;20048;-49
2022/07/24 01:06:25;;;;;;;7.85;7.05;;;;;;;22.12;56.70;98992.00;5073862;28;20031;-49
2022/07/24 01:08:52;;;;;;;6.50;5.90;;;;;;;22.04;56.95;98989.09;5073856;28;20497;-49
2022/07/24 01:11:19;;;;;;;11.07;6.88;;;;;;;22.00;57.23;98988.81;5055617;28;20031;-49
2022/07/24 01:13:47;;;;;;;10.77;6.47;;;;;;;22.04;56.97;98981.84;5055719;28;20110;-50
2022/07/24 01:16:13;;;;;;;9.77;6.22;;;;;;;22.06;56.85;98985.06;5055629;28;20394;-49
2022/07/24 01:18:38;;;;;;;6.40;5.80;;;;;;;22.07;56.78;98984.00;5073677;28;20029;-49
2022/07/24 01:21:05;;;;;;;10.05;7.50;;;;;;;22.07;56.96;98980.50;5055530;28;20447;-49
2022/07/24 01:23:31;;;;;;;7.40;6.55;;;;;;;22.06;56.83;98979.72;5057349;28;20036;-49
2022/07/24 01:25:57;;;;;;;8.43;6.50;;;;;;;22.06;56.95;98981.59;5055499;28;20060;-48
2022/07/24 01:28:23;;;;;;;7.18;6.22;;;;;;;22.07;56.77;98981.34;5055430;28;20024;-48
2022/07/24 01:30:49;;;;;;;9.13;7.03;;;;;;;22.14;56.63;98981.06;5073288;28;20444;-49
2022/07/24 01:33:15;;;;;;;7.90;6.57;;;;;;;22.17;56.70;98979.72;5055351;28;20532;-49
2022/07/24 01:35:41;;;;;;;8.25;6.28;;;;;;;22.14;56.33;98979.19;5055243;28;20047;-49
2022/07/24 01:38:07;;;;;;;7.50;6.72;;;;;;;22.04;56.44;98981.84;5055229;28;20033;-49
2022/07/24 01:40:33;;;;;;;7.57;6.63;;;;;;;21.91;56.98;98972.53;5073189;28;20024;-48
2022/07/24 01:42:59;;;;;;;11.50;6.57;;;;;;;21.79;57.34;98971.16;5055200;28;20038;-49
2022/07/24 01:45:24;;;;;;;7.72;6.30;;;;;;;21.66;57.72;98975.97;5073104;28;20020;-49
2022/07/24 01:47:50;;;;;;;8.35;6.10;;;;;;;21.51;57.94;98974.09;5073089;28;20124;-49
2022/07/24 01:50:16;;;;;;;8.05;6.50;;;;;;;21.47;58.37;98967.69;5054935;28;20024;-48
2022/07/24 01:52:42;;;;;;;9.65;7.35;;;;;;;21.44;58.26;98962.84;5072071;28;20375;-49
2022/07/24 01:55:08;;;;;;;8.38;6.65;;;;;;;21.42;58.67;98964.16;5072888;28;20472;-49
2022/07/24 01:57:35;;;;;;;9.88;6.68;;;;;;;21.43;58.61;98965.78;5072788;28;20135;-50
2022/07/24 02:00:01;;;;;;;8.63;6.55;;;;;;;21.49;58.19;98965.53;5072751;28;20027;-49
2022/07/24 02:02:30;;;;;;;11.70;7.13;;;;;;;21.56;58.26;98959.13;5072771;28;20063;-49
2022/07/24 02:04:55;;;;;;;8.05;6.40;;;;;;;21.62;57.85;98958.06;5054730;28;20025;-49
2022/07/24 02:07:21;;;;;;;12.75;7.43;;;;;;;21.56;58.32;98959.94;5072601;28;20486;-49
2022/07/24 02:09:47;;;;;;;7.32;6.22;;;;;;;21.51;58.38;98951.91;5054639;28;20052;-49
2022/07/24 02:12:13;;;;;;;7.80;6.40;;;;;;;21.47;58.55;98957.00;5072403;28;20024;-49
2022/07/24 02:14:38;;;;;;;7.25;6.55;;;;;;;21.43;58.51;98953.25;5054514;28;20035;-49
2022/07/24 02:17:04;;;;;;;7.68;6.97;;;;;;;21.34;58.56;98958.25;5072458;28;20512;-49
2022/07/24 02:19:30;;;;;;;10.52;9.25;;;;;;;21.22;59.11;98949.69;5072442;28;20099;-49
2022/07/24 02:21:56;;;;;;;8.13;7.40;;;;;;;21.11;59.20;98948.09;5054356;28;20036;-49
2022/07/24 02:24:22;;;;;;;7.85;7.07;;;;;;;21.00;59.56;98952.56;5072146;28;20052;-48
2022/07/24 02:26:49;;;;;;;12.10;8.20;;;;;;;20.96;59.92;98954.16;5072266;28;20017;-47
2022/07/24 02:29:15;;;;;;;10.32;6.97;;;;;;;20.94;60.06;98953.63;5054230;28;20035;-49
2022/07/24 02:31:41;;;;;;;9.32;7.53;;;;;;;20.92;60.00;98961.09;5072162;28;20021;-49
2022/07/24 02:34:06;;;;;;;11.27;7.65;;;;;;;20.84;60.48;98958.91;5054220;28;20028;-49
2022/07/24 02:36:32;;;;;;;8.90;6.90;;;;;;;20.84;60.43;98957.03;5072088;28;20028;-48
2022/07/24 02:38:57;;;;;;;12.27;7.63;;;;;;;20.90;60.43;98955.22;5072121;28;20107;-48
2022/07/24 02:41:23;;;;;;;9.48;7.15;;;;;;;20.92;60.55;98955.75;5072097;28;20228;-47
2022/07/24 02:43:49;;;;;;;8.93;8.02;;;;;;;20.89;60.63;98967.75;5072053;28;20512;-49
2022/07/24 02:46:15;;;;;;;9.73;7.18;;;;;;;20.80;60.87;98958.63;5072042;28;20032;-49
2022/07/24 02:48:40;;;;;;;9.75;7.70;;;;;;;20.71;60.91;98957.53;5071994;28;20473;-49
2022/07/24 02:51:06;;;;;;;11.43;7.22;;;;;;;20.66;61.37;98958.31;5053910;28;20044;-49
2022/07/24 02:53:32;;;;;;;9.60;7.15;;;;;;;20.58;61.62;98955.31;5072012;28;20393;-49
2022/07/24 02:55:58;;;;;;;8.70;7.63;;;;;;;20.46;61.91;98953.63;5071852;28;20078;-49
2022/07/24 02:58:24;;;;;;;8.77;7.10;;;;;;;20.37;62.48;98960.53;5053859;28;20035;-49
2022/07/24 03:00:49;;;;;;;13.23;8.13;;;;;;;20.33;62.41;98959.44;5053839;28;20025;-48
2022/07/24 03:03:15;;;;;;;10.65;7.75;;;;;;;20.37;62.16;98952.53;5071686;28;20029;-49
2022/07/24 03:05:41;;;;;;;8.88;7.15;;;;;;;20.47;61.92;98954.47;5071778;28;20103;-49
2022/07/24 03:08:06;;;;;;;10.35;7.80;;;;;;;20.48;61.89;98958.72;5071741;28;20071;-49
2022/07/24 03:10:32;;;;;;;8.45;7.10;;;;;;;20.40;61.95;98956.53;5053685;28;20458;-49
2022/07/24 03:12:58;;;;;;;8.13;7.32;;;;;;;20.29;62.31;98953.03;5053660;28;20111;-49
2022/07/24 03:15:24;;;;;;;7.70;6.90;;;;;;;20.30;62.41;98959.94;5053645;28;20383;-49
2022/07/24 03:17:55;;;;;;;10.77;7.40;;;;;;;20.34;62.36;98953.84;5053593;28;20036;-49
2022/07/24 03:20:22;;;;;;;9.55;7.25;;;;;;;20.36;62.14;98958.91;5071778;28;20099;-49
2022/07/24 03:22:49;;;;;;;9.13;7.57;;;;;;;20.32;62.43;98953.31;5053397;28;20509;-49
2022/07/24 03:25:15;;;;;;;8.57;7.65;;;;;;;20.26;62.40;98958.84;5053599;28;20089;-49
2022/07/24 03:27:40;;;;;;;7.93;6.65;;;;;;;20.24;62.87;98958.31;5071596;28;20024;-49
2022/07/24 03:30:07;;;;;;;8.93;8.00;;;;;;;20.20;63.00;98965.22;5053503;28;20025;-49
2022/07/24 03:32:33;;;;;;;9.38;7.45;;;;;;;20.15;63.08;98964.13;5053533;28;20028;-49
2022/07/24 03:34:59;;;;;;;8.30;7.50;;;;;;;20.11;63.30;98963.03;5053556;28;20403;-49
2022/07/24 03:37:24;;;;;;;8.85;7.97;;;;;;;20.09;63.06;98962.47;5071465;28;20052;-49
2022/07/24 03:39:50;;;;;;;12.27;8.05;;;;;;;20.16;63.08;98962.25;5053452;28;20020;-49
2022/07/24 03:42:16;;;;;;;8.63;7.70;;;;;;;20.25;62.78;98965.25;5053363;28;20031;-48
2022/07/24 03:44:41;;;;;;;9.95;8.52;;;;;;;20.33;62.46;98956.78;5071421;28;20024;-49
2022/07/24 03:47:07;;;;;;;10.40;8.05;;;;;;;20.40;62.28;98960.00;5053318;28;20081;-49
2022/07/24 03:49:33;;;;;;;8.95;8.02;;;;;;;20.46;61.98;98966.97;5053318;28;20095;-49
2022/07/24 03:51:58;;;;;;;10.15;7.13;;;;;;;20.51;61.80;98968.88;5053237;28;20017;-49
2022/07/24 03:54:24;;;;;;;9.30;7.65;;;;;;;20.55;61.68;98969.97;5053320;28;20154;-49
2022/07/24 03:56:50;;;;;;;9.15;7.20;;;;;;;20.62;61.69;98972.41;5071240;28;20074;-49
2022/07/24 03:59:16;;;;;;;8.73;7.82;;;;;;;20.70;61.34;98962.06;5053224;28;20113;-48
2022/07/24 04:01:42;;;;;;;8.50;7.65;;;;;;;20.71;61.10;98963.66;5053301;28;20062;-49
2022/07/24 04:04:08;;;;;;;8.23;7.43;;;;;;;20.66;61.23;98966.31;5071155;28;20025;-49
2022/07/24 04:06:34;;;;;;;8.30;7.50;;;;;;;20.51;61.25;98968.88;5053147;28;20024;-48
2022/07/24 04:09:03;;;;;;;9.55;8.25;;;;;;;20.35;62.02;98965.31;5071165;28;20032;-48
2022/07/24 04:11:29;;;;;;;11.18;8.02;;;;;;;20.21;62.47;98970.28;5053107;28;20017;-49
2022/07/24 04:13:55;;;;;;;10.90;7.38;;;;;;;20.06;62.88;98972.84;5071088;28;20410;-49
2022/07/24 04:16:21;;;;;;;10.05;7.95;;;;;;;19.95;63.28;98974.63;5056259;28;20027;-49
2022/07/24 04:18:46;;;;;;;10.27;8.25;;;;;;;19.84;63.48;98975.59;5056770;28;20508;-49
2022/07/24 04:21:12;;;;;;;10.60;7.97;;;;;;;19.82;63.59;98972.38;5074943;28;20137;-49
2022/07/24 04:23:38;;;;;;;10.15;8.00;;;;;;;19.78;63.95;98974.78;5045585;28;20045;-49
2022/07/24 04:26:06;;;;;;;10.10;8.63;;;;;;;19.81;63.97;98971.59;5036648;28;20492;-49
2022/07/24 04:28:35;;;;;;;10.80;8.10;;;;;;;19.89;63.78;98967.66;5054571;28;20032;-49
2022/07/24 04:31:02;;;;;;;9.55;8.65;;;;;;;19.95;63.48;98970.09;5054417;28;20017;-49
2022/07/24 04:33:28;;;;;;;11.15;8.30;;;;;;;19.95;63.40;98969.31;5054499;28;20025;-49
2022/07/24 04:35:54;;;;;;;11.10;8.25;;;;;;;19.94;63.81;98975.66;5036502;28;20035;-50
2022/07/24 04:38:20;;;;;;;9.55;8.63;;;;;;;19.91;63.58;98971.66;5036518;28;20028;-49
2022/07/24 04:40:45;;;;;;;9.60;8.57;;;;;;;19.94;63.51;98970.34;5054281;28;20458;-49
2022/07/24 04:43:11;;;;;;;9.80;7.78;;;;;;;19.97;63.49;98979.72;5054287;28;20556;-49
2022/07/24 04:45:36;;;;;;;9.07;8.13;;;;;;;20.28;62.78;98976.22;5054277;28;20031;-49
2022/07/24 04:48:02;;;;;;;12.68;8.63;;;;;;;20.82;61.04;98985.84;5036278;28;20032;-50
2022/07/24 04:50:28;;;;;;;9.60;8.25;;;;;;;21.46;58.98;98983.97;5036326;28;20032;-49
2022/07/24 04:52:54;;;;;;;9.02;8.20;;;;;;;22.05;57.57;98982.66;5054093;28;20090;-49
2022/07/24 04:55:20;;;;;;;9.50;7.90;;;;;;;22.58;55.70;98990.34;5054110;28;20075;-49
2022/07/24 04:57:45;;;;;;;9.18;8.27;;;;;;;23.02;54.25;98992.38;5036133;28;20029;-49
2022/07/24 05:00:14;;;;;;;9.52;7.88;;;;;;;23.27;53.08;98989.56;5053972;28;20063;-49
2022/07/24 05:02:39;;;;;;;12.57;8.80;;;;;;;23.39;52.78;98991.13;5053997;28;20099;-49
2022/07/24 05:05:06;;;;;;;9.38;7.88;;;;;;;23.47;52.75;98985.97;5053818;28;20059;-49
2022/07/24 05:07:32;;;;;;;11.25;8.15;;;;;;;23.38;52.83;98984.16;5035949;28;20025;-49
2022/07/24 05:09:58;;;;;;;10.98;8.00;;;;;;;23.24;52.83;98979.44;5053801;28;20159;-48
2022/07/24 05:12:27;;;;;;;10.70;7.85;;;;;;;23.25;53.17;98972.97;5053659;28;20127;-49
2022/07/24 05:14:53;;;;;;;9.50;7.65;;;;;;;23.42;52.53;98986.03;5053695;28;20033;-49
2022/07/24 05:17:18;;;;;;;11.90;8.85;;;;;;;23.81;51.85;98984.44;5035736;28;20036;-49
2022/07/24 05:19:44;;;;;;;12.05;7.35;;;;;;;24.26;50.43;98979.75;5035715;28;20052;-49
2022/07/24 05:22:10;;;;;;;9.00;8.10;;;;;;;24.65;49.22;98971.59;5035534;28;20033;-49
2022/07/24 05:24:36;;;;;;;9.07;8.18;;;;;;;24.99;48.18;98969.81;5072172;28;20514;-49
2022/07/24 05:27:02;;;;;;;12.27;8.00;;;;;;;25.39;47.25;98971.19;5054263;28;20024;-49
2022/07/24 05:29:27;;;;;;;11.25;7.93;;;;;;;25.82;46.25;98971.06;5073342;28;20025;-48
2022/07/24 05:31:54;;;;;;;10.55;7.80;;;;;;;26.25;45.43;98968.22;5055268;28;20012;-49
2022/07/24 05:34:22;;;;;;;8.88;7.45;;;;;;;26.65;44.40;98970.47;5073307;28;20052;-49
2022/07/24 05:36:48;;;;;;;8.85;7.93;;;;;;;26.92;43.68;98968.84;5055262;28;20525;-49
2022/07/24 05:39:14;;;;;;;7.95;7.22;;;;;;;27.19;42.81;98978.78;5073218;28;20058;-49
2022/07/24 05:41:40;;;;;;;7.80;6.95;;;;;;;27.71;41.98;98979.25;5055219;28;20025;-48
2022/07/24 05:44:06;;;;;;;9.77;7.85;;;;;;;28.27;41.04;98980.56;5073146;28;20445;-49
2022/07/24 05:46:31;;;;;;;9.07;7.72;;;;;;;28.83;39.98;98972.81;5055001;28;20502;-49
2022/07/24 05:48:58;;;;;;;8.00;7.22;;;;;;;29.37;38.47;98975.31;5072955;28;20028;-49
2022/07/24 05:51:25;;;;;;;9.45;7.45;;;;;;;30.04;37.74;98981.28;5054921;28;20028;-49
2022/07/24 05:53:51;;;;;;;7.80;6.88;;;;;;;30.75;36.20;98980.72;5073107;28;20094;-50
2022/07/24 05:56:17;;;;;;;8.10;7.35;;;;;;;31.38;35.06;98980.03;5072924;28;20372;-49
2022/07/24 05:58:43;;;;;;;10.07;6.72;;;;;;;32.12;34.03;98975.69;5072847;28;20082;-49
2022/07/24 06:01:08;;;;;;;7.93;7.05;;;;;;;32.88;32.70;98972.66;5054752;28;20089;-50
2022/07/24 06:03:34;;;;;;;9.45;6.88;;;;;;;33.57;32.23;98970.81;5054730;28;20449;-50
2022/07/24 06:06:00;;;;;;;12.32;7.10;;;;;;;34.29;30.63;98967.25;5072668;28;20016;-50
2022/07/24 06:08:25;;;;;;;7.18;6.47;;;;;;;35.00;29.75;98974.38;5072618;28;20025;-50
2022/07/24 06:10:51;;;;;;;7.63;6.78;;;;;;;35.66;28.71;98973.78;5072461;28;20063;-50
2022/07/24 06:13:17;;;;;;;7.55;6.55;;;;;;;36.18;27.91;98969.66;5054622;28;20494;-50
2022/07/24 06:15:42;;;;;;;8.15;7.15;;;;;;;36.53;27.34;98960.47;5072490;28;20041;-50
2022/07/24 06:18:08;;;;;;;7.68;6.53;;;;;;;37.01;26.50;98965.44;5054541;28;20032;-50
2022/07/24 06:20:33;;;;;;;9.23;6.88;;;;;;;37.46;26.39;98958.19;5054361;28;20020;-50
2022/07/24 06:22:59;;;;;;;7.10;6.20;;;;;;;38.00;25.93;98956.81;5054128;28;20036;-50
2022/07/24 06:25:25;;;;;;;9.13;6.80;;;;;;;38.06;25.10;98949.84;5072395;28;20116;-49
2022/07/24 06:27:53;;;;;;;8.27;6.47;;;;;;;37.98;25.15;98948.19;5072253;28;20021;-49
2022/07/24 06:30:25;;;;;;;15.68;6.50;;;;;;;37.92;25.27;98941.47;5072511;28;20100;-49
2022/07/24 06:32:56;;;;;;;9.30;5.85;;;;;;;37.41;25.97;98948.38;5072174;28;20508;-49
2022/07/24 06:35:23;;;;;;;8.15;6.55;;;;;;;36.73;26.57;98951.00;5054435;28;20025;-49
2022/07/24 06:37:48;;;;;;;12.95;6.95;;;;;;;36.65;26.96;98954.81;5071812;28;20028;-49
2022/07/24 06:40:16;;;;;;;11.15;6.57;;;;;;;36.46;27.10;98941.97;5072084;28;20131;-49
2022/07/24 06:42:47;;;;;;;14.85;6.45;;;;;;;36.25;27.31;98947.16;5072125;28;20059;-50
2022/07/24 06:45:13;;;;;;;6.88;6.20;;;;;;;37.01;26.75;98943.53;5072067;28;20490;-50
2022/07/24 06:47:39;;;;;;;8.40;6.35;;;;;;;38.06;25.71;98938.88;5072023;28;20095;-48
2022/07/24 06:50:05;;;;;;;11.73;6.38;;;;;;;38.67;24.23;98935.78;5053986;28;20060;-48
2022/07/24 06:52:31;;;;;;;7.38;6.45;;;;;;;38.45;24.33;98938.38;5071887;28;20498;-49
2022/07/24 06:54:57;;;;;;;14.75;7.00;;;;;;;38.27;24.95;98940.97;5053955;28;20032;-50
2022/07/24 06:57:25;;;;;;;8.48;5.85;;;;;;;39.11;23.90;98937.59;5071872;28;20016;-50
2022/07/24 06:59:52;;;;;;;8.35;6.47;;;;;;;40.04;22.94;98943.31;5054304;28;20440;-50
2022/07/24 07:02:19;;;;;;;10.48;5.72;;;;;;;40.48;22.53;98938.59;5071804;28;20043;-50
2022/07/24 07:04:45;;;;;;;12.18;6.13;;;;;;;39.98;22.78;98933.91;5053826;28;20037;-50
2022/07/24 07:07:11;;;;;;;9.93;5.82;;;;;;;39.51;23.32;98942.06;5071841;28;20502;-50
2022/07/24 07:09:36;;;;;;;8.18;5.78;;;;;;;38.99;23.73;98938.72;5053752;28;20040;-49
2022/07/24 07:12:05;;;;;;;10.05;5.90;;;;;;;38.73;24.15;98937.00;5071693;28;20074;-49
2022/07/24 07:14:31;;;;;;;6.82;6.10;;;;;;;39.07;24.07;98932.09;5071729;28;20025;-50
2022/07/24 07:16:57;;;;;;;8.35;5.82;;;;;;;39.53;23.23;98930.69;5071590;28;20090;-50
2022/07/24 07:19:23;;;;;;;7.93;5.55;;;;;;;39.85;23.16;98930.72;5071696;28;20047;-51
2022/07/24 07:21:51;;;;;;;9.70;6.38;;;;;;;39.46;23.34;98933.41;5071623;28;20020;-50
2022/07/24 07:24:17;;;;;;;8.07;5.85;;;;;;;38.86;23.95;98937.44;5071460;28;20045;-50
2022/07/24 07:26:43;;;;;;;6.85;5.88;;;;;;;39.17;24.19;98946.25;5071523;28;20619;-50
2022/07/24 07:29:08;;;;;;;8.27;6.22;;;;;;;39.28;23.55;98938.81;5053481;28;20490;-49
2022/07/24 07:31:34;;;;;;;10.15;5.95;;;;;;;38.80;23.98;98939.78;5053428;28;20087;-49
2022/07/24 07:34:00;;;;;;;6.03;5.53;;;;;;;38.25;24.97;98937.06;5053514;28;20394;-50
2022/07/24 07:36:25;;;;;;;7.13;5.80;;;;;;;38.30;24.88;98942.97;5053465;28;20052;-50
2022/07/24 07:38:51;;;;;;;10.45;6.65;;;;;;;37.89;25.88;98947.69;5053469;28;20037;-48
2022/07/24 07:41:19;;;;;;;9.98;5.45;;;;;;;37.14;26.48;98942.97;5071442;28;20035;-49
2022/07/24 07:43:50;;;;;;;7.88;5.70;;;;;;;37.05;26.87;98941.66;5071431;28;20035;-49
2022/07/24 07:46:16;;;;;;;7.32;6.07;;;;;;;37.44;26.18;98922.97;5071425;28;20379;-49
2022/07/24 07:48:42;;;;;;;7.65;5.97;;;;;;;37.68;25.90;98931.84;5071398;28;20035;-50
2022/07/24 07:51:08;;;;;;;8.48;5.40;;;;;;;38.42;25.29;98924.66;5074348;28;20021;-50
2022/07/24 07:53:33;;;;;;;15.02;6.38;;;;;;;38.17;25.63;98923.31;5075242;28;20028;-50
2022/07/24 07:56:01;;;;;;;7.43;6.20;;;;;;;38.12;25.58;98920.13;5075198;28;20440;-50
2022/07/24 07:58:27;;;;;;;11.60;6.35;;;;;;;38.39;25.29;98922.66;5075231;28;20106;-50
2022/07/24 08:00:53;;;;;;;7.13;6.53;;;;;;;38.95;24.48;98924.16;5074980;28;20104;-51
2022/07/24 08:03:19;;;;;;;10.25;6.03;;;;;;;39.35;24.07;98909.44;5057104;28;20186;-51
2022/07/24 08:05:45;;;;;;;9.48;5.90;;;;;;;39.79;23.46;98913.06;5057008;28;20029;-50
2022/07/24 08:08:11;;;;;;;9.18;6.47;;;;;;;40.23;23.42;98913.88;5075001;28;20111;-50
2022/07/24 08:10:37;;;;;;;6.63;5.93;;;;;;;40.19;23.26;98913.09;5057033;28;20139;-50
2022/07/24 08:13:03;;;;;;;6.60;6.00;;;;;;;40.46;22.91;98910.69;5074890;28;20023;-50
2022/07/24 08:15:29;;;;;;;10.05;6.00;;;;;;;40.34;22.69;98915.44;5074902;28;20490;-50
2022/07/24 08:17:57;;;;;;;11.10;6.38;;;;;;;40.42;22.74;98918.19;5074866;28;20032;-50
2022/07/24 08:20:25;;;;;;;8.15;5.93;;;;;;;40.54;22.54;98913.03;5074704;28;20020;-50
2022/07/24 08:22:51;;;;;;;8.13;5.57;;;;;;;40.64;22.26;98908.69;5074486;28;20520;-51
2022/07/24 08:25:17;;;;;;;8.77;6.20;;;;;;;40.89;21.85;98911.38;5074763;28;20028;-49
2022/07/24 08:27:43;;;;;;;13.27;5.57;;;;;;;40.83;22.21;98904.72;5074612;28;20031;-49
2022/07/24 08:30:10;;;;;;;6.65;5.43;;;;;;;41.11;21.50;98908.50;5056611;28;20032;-50
2022/07/24 08:32:37;;;;;;;8.38;6.28;;;;;;;41.57;20.70;98912.22;5056512;28;20013;-48
2022/07/24 08:35:04;;;;;;;8.13;5.80;;;;;;;41.78;21.15;98912.09;5074491;28;20027;-49
2022/07/24 08:37:30;;;;;;;10.13;5.57;;;;;;;42.39;21.25;98908.78;5074415;28;20095;-50
2022/07/24 08:39:55;;;;;;;8.70;5.72;;;;;;;42.44;20.45;98910.34;5056488;28;20561;-50
2022/07/24 08:42:21;;;;;;;11.70;5.50;;;;;;;42.69;20.49;98901.81;5074328;28;20032;-48
2022/07/24 08:44:47;;;;;;;6.63;5.50;;;;;;;42.72;20.23;98903.72;5074329;28;20111;-49
2022/07/24 08:47:15;;;;;;;7.18;5.13;;;;;;;42.77;19.82;98908.03;5074321;28;20394;-48
2022/07/24 08:49:44;;;;;;;9.25;5.85;;;;;;;42.21;20.72;98899.94;5056314;28;20016;-48
2022/07/24 08:52:10;;;;;;;12.02;6.03;;;;;;;42.06;21.10;98891.78;5074197;28;20024;-47
2022/07/24 08:54:36;;;;;;;8.18;5.53;;;;;;;42.08;20.73;98889.41;5056119;28;20028;-48
2022/07/24 08:57:03;;;;;;;6.90;4.95;;;;;;;42.14;20.68;98888.94;5074112;28;20059;-51
2022/07/24 08:59:29;;;;;;;10.23;5.50;;;;;;;42.29;20.08;98888.41;5074101;28;20033;-49
2022/07/24 09:01:55;;;;;;;9.40;5.38;;;;;;;42.42;19.64;98888.69;5073726;28;20043;-49
2022/07/24 09:04:39;;;;;;;11.45;5.30;;;;;;;42.37;20.12;98882.81;5055933;28;20423;-49
2022/07/24 09:07:16;;;;;;;6.65;5.03;;;;;;;42.32;20.22;98892.34;5074485;28;20097;-48
2022/07/24 09:09:44;;;;;;;8.93;5.25;;;;;;;42.78;19.53;98885.50;5055833;28;20119;-49
2022/07/24 09:12:13;;;;;;;7.72;4.88;;;;;;;43.44;19.10;98883.47;5055663;28;20031;-50
2022/07/24 09:14:41;;;;;;;7.03;5.05;;;;;;;43.98;18.61;98888.94;5039451;28;20028;-47
2022/07/24 09:17:15;;;;;;;9.85;5.05;;;;;;;44.27;19.85;98885.66;5073947;28;20074;-50
2022/07/24 09:19:52;;;;;;;8.43;4.97;;;;;;;44.84;18.09;98887.34;5073760;28;20033;-49
2022/07/24 09:22:30;;;;;;;17.38;6.03;;;;;;;45.09;17.75;98874.19;5055762;28;20451;-52
2022/07/24 09:25:18;;;;;;;15.07;6.65;;;;;;;44.81;18.02;98884.63;5035735;28;20037;-50
2022/07/24 09:27:50;;;;;;;7.43;5.63;;;;;;;45.57;17.17;98870.69;5053718;28;20025;-51
2022/07/24 09:30:31;;;;;;;15.93;6.43;;;;;;;46.08;17.15;98873.00;5053306;28;20025;-51
2022/07/24 09:33:03;;;;;;;9.52;4.82;;;;;;;46.31;16.74;98871.22;5035422;28;20115;-51
2022/07/24 09:35:33;;;;;;;7.88;4.68;;;;;;;46.82;16.35;98872.16;5053302;28;20044;-53
2022/07/24 09:38:01;;;;;;;5.35;4.55;;;;;;;46.39;16.31;98872.56;5053572;28;20395;-52
2022/07/24 09:40:37;;;;;;;5.85;4.63;;;;;;;45.35;17.19;98870.41;5035291;28;20021;-53
2022/07/24 09:43:21;;;;;;;8.30;4.85;;;;;;;45.16;17.58;98865.69;5053265;28;20033;-53
2022/07/24 09:46:08;;;;;;;15.60;5.20;;;;;;;44.93;17.84;98859.06;5053193;28;20030;-52
2022/07/24 09:48:39;;;;;;;5.63;4.35;;;;;;;44.68;17.95;98862.38;5053148;28;20082;-52
2022/07/24 09:51:15;;;;;;;6.32;5.28;;;;;;;44.59;18.19;98862.91;5052936;28;20026;-51
2022/07/24 09:53:43;;;;;;;5.07;4.50;;;;;;;44.77;18.20;98861.78;5053015;28;20021;-52
2022/07/24 09:56:11;;;;;;;6.57;4.95;;;;;;;45.28;17.45;98851.19;5034980;28;20017;-52
2022/07/24 09:58:41;;;;;;;5.15;4.30;;;;;;;45.67;16.81;98852.25;5052864;28;20032;-51
2022/07/24 10:01:08;;;;;;;14.38;5.55;;;;;;;45.93;17.24;98852.38;5052827;28;20040;-53
2022/07/24 10:03:40;;;;;;;12.82;4.85;;;;;;;45.15;17.56;98856.59;5052745;28;20071;-53
2022/07/24 10:06:12;;;;;;;11.48;5.18;;;;;;;44.45;18.43;98857.66;5034905;28;20025;-51
2022/07/24 10:08:41;;;;;;;5.28;4.50;;;;;;;43.99;18.55;98854.56;5052956;28;20029;-52
2022/07/24 10:11:07;;;;;;;5.30;4.70;;;;;;;43.99;18.80;98853.75;5052573;28;20055;-52
2022/07/24 10:13:34;;;;;;;6.82;4.57;;;;;;;43.88;18.81;98848.44;5052203;28;20437;-52
2022/07/24 10:16:14;;;;;;;4.97;4.47;;;;;;;44.25;18.52;98852.91;5052488;28;20024;-51
2022/07/24 10:19:00;;;;;;;6.82;4.88;;;;;;;44.32;18.65;98837.38;5034714;28;20574;-52
2022/07/24 10:21:37;;;;;;;5.78;4.18;;;;;;;44.69;18.26;98833.47;5052361;28;20025;-51
2022/07/24 10:24:12;;;;;;;7.20;4.68;;;;;;;44.79;17.76;98834.44;5048479;28;20048;-51
2022/07/24 10:26:42;;;;;;;6.32;4.60;;;;;;;44.43;18.18;98833.19;5054407;28;20026;-52
2022/07/24 10:29:19;;;;;;;8.50;5.53;;;;;;;44.73;18.33;98833.38;5054626;28;20044;-53
2022/07/24 10:31:48;;;;;;;10.82;5.00;;;;;;;44.10;18.54;98837.78;5072208;28;20033;-53
2022/07/24 10:34:25;;;;;;;6.07;5.43;;;;;;;44.19;18.52;98832.47;5072237;28;20394;-52
2022/07/24 10:37:20;;;;;;;8.40;4.97;;;;;;;44.43;18.12;98827.66;5054302;28;20044;-52
2022/07/24 10:40:23;;;;;;;7.45;4.82;;;;;;;43.99;18.49;98826.91;5035836;28;20041;-52
2022/07/24 10:43:08;;;;;;;6.07;4.53;;;;;;;44.02;19.18;98828.03;5054210;28;20012;-52
2022/07/24 10:45:53;;;;;;;10.63;4.82;;;;;;;44.05;19.04;98814.13;5054108;28;20029;-52
2022/07/24 10:48:28;;;;;;;7.85;4.43;;;;;;;43.95;18.62;98814.31;5072062;28;20032;-52
2022/07/24 10:51:07;;;;;;;8.52;4.65;;;;;;;44.16;18.71;98811.19;5072096;28;20025;-52
2022/07/24 10:53:39;;;;;;;9.88;4.82;;;;;;;44.50;18.53;98809.38;5072095;28;20107;-52
2022/07/24 10:56:32;;;;;;;9.07;4.95;;;;;;;44.90;18.37;98801.78;5054027;28;20032;-53
2022/07/24 10:58:58;;;;;;;;;;;;;;;45.43;17.96;98798.97;5054342;28;20028;-53
2022/07/24 11:01:48;;;;;;;5.20;4.07;;;;;;;45.49;17.47;98802.00;5071877;28;19974;-52
2022/07/24 11:04:19;;;;;;;9.65;4.53;;;;;;;45.51;17.74;98788.47;5053907;28;20055;-50
2022/07/24 11:06:56;;;;;;;6.35;4.25;;;;;;;45.58;17.19;98791.03;5071773;28;20502;-52
2022/07/24 11:09:24;;;;;;;13.27;5.22;;;;;;;45.59;17.55;98778.75;5071827;28;20031;-52
2022/07/24 11:11:56;;;;;;;10.32;4.65;;;;;;;45.78;17.07;98780.66;5071746;28;20098;-52
2022/07/24 11:14:37;;;;;;;9.10;4.38;;;;;;;45.65;17.31;98777.81;5053742;28;20021;-52
2022/07/24 11:17:38;;;;;;;11.32;5.07;;;;;;;45.55;17.14;98772.53;5071671;28;20107;-50
2022/07/24 11:20:12;;;;;;;7.20;4.20;;;;;;;44.92;17.90;98766.13;5071934;28;20393;-51
2022/07/24 11:22:54;;;;;;;8.82;4.93;;;;;;;45.22;17.60;98762.22;5053441;28;20478;-51
2022/07/24 11:25:22;;;;;;;10.85;5.72;;;;;;;44.94;18.21;98762.94;5075282;28;20081;-51
2022/07/24 11:27:58;;;;;;;14.93;5.53;;;;;;;44.71;18.09;98753.50;5075807;28;20062;-51
2022/07/24 11:30:30;;;;;;;9.27;5.10;;;;;;;44.56;18.33;98752.28;5075727;28;20031;-51
2022/07/24 11:32:57;;;;;;;10.13;4.60;;;;;;;44.47;17.85;98748.13;5075853;28;20043;-50
2022/07/24 11:35:34;;;;;;;4.88;4.25;;;;;;;44.19;18.41;98749.47;5075676;28;20027;-51